Aérodrome :
LOGIN :

S'inscrire | Disclaimer

   EN    FR    IT 

 










Légende :    VFR   VFR Marginal   IFR   IFR Intensif   IFR Très Intensif
Visi : 
Plafond : 
>= 8 km
>= 3000ft
5 à 8 km
1000 à 3000 ft
1500m à 5 km
500 à 1000 ft
800 à 1500m
200 à 500 ft
< 800m
< 200 ft
Symboles :   Orages  Brouillard  Fortes neiges  Fortes précipitations  Vent > 20 kt
SIGMETs :   Divers  Orages  Givrage  Turbulence  Onde Orograph.  Cendres Volcan.






- Altitude de l'aérodrome : 359 ft
- Code IATA : BVA


LFOB - Beauvais

DERNIER METAR :
  • 231430Z AUTO 34014KT 9999 OVC006 02/01 Q0992 BECMG BKN013

METARs EXPIRÉS :
  • 231400Z AUTO 33009KT 9999 OVC005 02/02 Q0991 TEMPO 2000 -SNRA BECMG BKN013
  • 231330Z AUTO 32008KT 9999 BKN004 OVC011 03/02 Q0991 TEMPO 2000 -SNRA BECMG BKN013
  • 231300Z AUTO 31007KT 8000 BKN004 OVC009 03/02 Q0991 TEMPO 2000 -SNRA
  • 231230Z AUTO 02004KT 9000 BKN004 OVC013 03/03 Q0991 TEMPO 2000 -SNRA
  • 231200Z AUTO VRB03KT 7000 -RADZ OVC005 03/03 Q0991 TEMPO 2000 -SNRA

TAF TAF LFOB
Valide du 23 à 12h jusqu'au 24 à 12h UTC


231100Z 2312/2412 09006KT 9999 OVC007
TEMPO 2312/2315 2000 -SNRA OVC004
BECMG 2315/2317 33010KT BKN013
BECMG 2317/2319 BKN020
BECMG 2322/2324 24005KT
BECMG 2410/2412 16013KT BKN012
ATIS : +33 3 44 11 49 28



MET'MAP, la Météo Aéronautique d'un coup d'oeil ! - Copyright ORBIFLY Décembre 2007 - Disclaimer

ORBIFLY MET'MAP TEAM :

Programmation & Développement : Alexandra Zaïnal
Sur une idée originale de : Baudouin d'Aumeries
Assistance à la programmation : Marc-Olivier Méhu
Soutien technique & logistique : Manuel Goepfert

Contact : metmap@orbifly.com




SOURCES & CREDITS :

   NOAA